sensor_id;sensor_type;location;lat;lon;timestamp;pressure;altitude;pressure_sealevel;temperature;humidity
52032;BME280;38044;45.148;39.604;2023-10-31T00:00:34;101755.78;;;9.40;73.49
52032;BME280;38044;45.148;39.604;2023-10-31T00:03:00;101713.75;;;9.23;72.97
52032;BME280;38044;45.148;39.604;2023-10-31T00:05:26;101736.88;;;9.24;73.41
52032;BME280;38044;45.148;39.604;2023-10-31T00:07:52;101742.84;;;9.10;74.10
52032;BME280;38044;45.148;39.604;2023-10-31T00:10:18;101754.44;;;9.15;73.88
52032;BME280;38044;45.148;39.604;2023-10-31T00:12:43;101752.72;;;9.04;74.59
52032;BME280;38044;45.148;39.604;2023-10-31T00:15:09;101724.22;;;8.98;74.50
52032;BME280;38044;45.148;39.604;2023-10-31T00:17:35;101735.53;;;9.00;74.16
52032;BME280;38044;45.148;39.604;2023-10-31T00:20:01;101712.91;;;8.91;74.42
52032;BME280;38044;45.148;39.604;2023-10-31T00:22:27;101729.09;;;9.01;74.42
52032;BME280;38044;45.148;39.604;2023-10-31T00:24:53;101730.38;;;8.93;74.75
52032;BME280;38044;45.148;39.604;2023-10-31T00:27:19;101723.31;;;8.87;74.74
52032;BME280;38044;45.148;39.604;2023-10-31T00:29:45;101735.59;;;8.83;75.03
52032;BME280;38044;45.148;39.604;2023-10-31T00:32:11;101699.56;;;8.52;75.98
52032;BME280;38044;45.148;39.604;2023-10-31T00:34:36;101727.31;;;8.85;75.47
52032;BME280;38044;45.148;39.604;2023-10-31T00:37:02;101715.28;;;8.65;75.73
52032;BME280;38044;45.148;39.604;2023-10-31T00:39:28;101709.84;;;8.60;75.49
52032;BME280;38044;45.148;39.604;2023-10-31T00:41:54;101717.50;;;8.51;76.11
52032;BME280;38044;45.148;39.604;2023-10-31T00:44:20;101718.31;;;8.52;75.91
52032;BME280;38044;45.148;39.604;2023-10-31T00:46:46;101718.47;;;8.62;75.77
52032;BME280;38044;45.148;39.604;2023-10-31T00:49:11;101715.72;;;8.57;75.46
52032;BME280;38044;45.148;39.604;2023-10-31T00:51:37;101714.28;;;8.71;75.53
52032;BME280;38044;45.148;39.604;2023-10-31T00:54:03;101705.63;;;8.64;75.35
52032;BME280;38044;45.148;39.604;2023-10-31T00:56:29;101706.06;;;8.56;75.38
52032;BME280;38044;45.148;39.604;2023-10-31T00:58:55;101717.13;;;8.43;75.73
52032;BME280;38044;45.148;39.604;2023-10-31T01:01:20;101696.19;;;8.40;75.61
52032;BME280;38044;45.148;39.604;2023-10-31T01:03:46;101718.63;;;8.55;75.95
52032;BME280;38044;45.148;39.604;2023-10-31T01:06:12;101717.31;;;8.58;75.62
52032;BME280;38044;45.148;39.604;2023-10-31T01:08:38;101683.91;;;8.44;75.39
52032;BME280;38044;45.148;39.604;2023-10-31T01:11:03;101714.69;;;8.41;75.58
52032;BME280;38044;45.148;39.604;2023-10-31T01:13:29;101722.69;;;8.19;76.45
52032;BME280;38044;45.148;39.604;2023-10-31T01:15:55;101718.22;;;8.08;76.72
52032;BME280;38044;45.148;39.604;2023-10-31T01:18:21;101723.44;;;7.98;77.25
52032;BME280;38044;45.148;39.604;2023-10-31T01:20:47;101706.88;;;8.01;77.33
52032;BME280;38044;45.148;39.604;2023-10-31T01:23:13;101690.66;;;8.07;76.83
52032;BME280;38044;45.148;39.604;2023-10-31T01:25:38;101687.78;;;8.14;76.57
52032;BME280;38044;45.148;39.604;2023-10-31T01:28:04;101704.25;;;8.23;76.62
52032;BME280;38044;45.148;39.604;2023-10-31T01:30:30;101699.91;;;8.00;76.93
52032;BME280;38044;45.148;39.604;2023-10-31T01:32:56;101693.09;;;7.92;77.26
52032;BME280;38044;45.148;39.604;2023-10-31T01:35:22;101693.97;;;7.98;77.40
52032;BME280;38044;45.148;39.604;2023-10-31T01:37:47;101691.28;;;7.98;77.46
52032;BME280;38044;45.148;39.604;2023-10-31T01:40:13;101706.03;;;8.17;77.15
52032;BME280;38044;45.148;39.604;2023-10-31T01:42:39;101714.16;;;8.22;77.16
52032;BME280;38044;45.148;39.604;2023-10-31T01:45:05;101720.88;;;8.25;77.09
52032;BME280;38044;45.148;39.604;2023-10-31T01:47:32;101723.81;;;8.23;77.27
52032;BME280;38044;45.148;39.604;2023-10-31T01:49:58;101717.91;;;8.21;77.36
52032;BME280;38044;45.148;39.604;2023-10-31T01:52:25;101700.56;;;8.07;77.34
52032;BME280;38044;45.148;39.604;2023-10-31T01:54:51;101723.50;;;8.20;77.41
52032;BME280;38044;45.148;39.604;2023-10-31T01:57:19;101720.09;;;8.24;77.33
52032;BME280;38044;45.148;39.604;2023-10-31T01:59:46;101718.38;;;8.18;77.66
52032;BME280;38044;45.148;39.604;2023-10-31T02:02:12;101718.72;;;8.22;77.55
52032;BME280;38044;45.148;39.604;2023-10-31T02:04:38;101702.16;;;8.08;77.75
52032;BME280;38044;45.148;39.604;2023-10-31T02:07:04;101711.69;;;7.99;78.19
52032;BME280;38044;45.148;39.604;2023-10-31T02:09:30;101722.13;;;8.17;78.28
52032;BME280;38044;45.148;39.604;2023-10-31T02:11:57;101721.31;;;8.17;78.00
52032;BME280;38044;45.148;39.604;2023-10-31T02:14:23;101724.56;;;8.19;77.84
52032;BME280;38044;45.148;39.604;2023-10-31T02:16:49;101703.00;;;7.92;78.56
52032;BME280;38044;45.148;39.604;2023-10-31T02:19:19;101732.03;;;8.00;78.96
52032;BME280;38044;45.148;39.604;2023-10-31T02:21:45;101719.53;;;7.88;79.15
52032;BME280;38044;45.148;39.604;2023-10-31T02:24:10;101714.91;;;8.01;78.78
52032;BME280;38044;45.148;39.604;2023-10-31T02:26:36;101704.63;;;7.93;78.35
52032;BME280;38044;45.148;39.604;2023-10-31T02:29:03;101710.84;;;7.98;78.38
52032;BME280;38044;45.148;39.604;2023-10-31T02:31:29;101709.81;;;7.99;78.16
52032;BME280;38044;45.148;39.604;2023-10-31T02:33:55;101718.75;;;7.88;78.42
52032;BME280;38044;45.148;39.604;2023-10-31T02:36:21;101691.06;;;7.82;78.49
52032;BME280;38044;45.148;39.604;2023-10-31T02:38:47;101691.88;;;7.83;78.08
52032;BME280;38044;45.148;39.604;2023-10-31T02:41:13;101686.44;;;7.78;78.22
52032;BME280;38044;45.148;39.604;2023-10-31T02:43:40;101712.91;;;7.91;78.24
52032;BME280;38044;45.148;39.604;2023-10-31T02:46:06;101678.81;;;7.70;78.58
52032;BME280;38044;45.148;39.604;2023-10-31T02:48:32;101681.28;;;7.71;78.48
52032;BME280;38044;45.148;39.604;2023-10-31T02:51:07;101694.75;;;7.76;78.73
52032;BME280;38044;45.148;39.604;2023-10-31T02:53:34;101691.50;;;7.74;78.68
52032;BME280;38044;45.148;39.604;2023-10-31T02:56:00;101680.28;;;7.60;78.89
52032;BME280;38044;45.148;39.604;2023-10-31T02:58:26;101704.28;;;7.72;78.54
52032;BME280;38044;45.148;39.604;2023-10-31T03:00:52;101709.59;;;7.67;78.86
52032;BME280;38044;45.148;39.604;2023-10-31T03:03:17;101685.31;;;7.57;78.64
52032;BME280;38044;45.148;39.604;2023-10-31T03:05:43;101691.31;;;7.64;78.55
52032;BME280;38044;45.148;39.604;2023-10-31T03:08:09;101690.00;;;7.66;78.76
52032;BME280;38044;45.148;39.604;2023-10-31T03:10:38;101689.63;;;7.58;78.89
52032;BME280;38044;45.148;39.604;2023-10-31T03:13:04;101675.59;;;7.34;79.21
52032;BME280;38044;45.148;39.604;2023-10-31T03:15:30;101694.31;;;7.34;79.61
52032;BME280;38044;45.148;39.604;2023-10-31T03:17:56;101670.06;;;7.40;79.74
52032;BME280;38044;45.148;39.604;2023-10-31T03:20:22;101665.63;;;7.46;79.60
52032;BME280;38044;45.148;39.604;2023-10-31T03:22:48;101682.25;;;7.65;79.05
52032;BME280;38044;45.148;39.604;2023-10-31T03:25:14;101664.72;;;7.40;79.10
52032;BME280;38044;45.148;39.604;2023-10-31T03:27:40;101687.81;;;7.47;79.16
52032;BME280;38044;45.148;39.604;2023-10-31T03:30:06;101687.19;;;7.39;79.40
52032;BME280;38044;45.148;39.604;2023-10-31T03:32:32;101667.63;;;7.22;79.79
52032;BME280;38044;45.148;39.604;2023-10-31T03:34:58;101681.59;;;7.24;80.02
52032;BME280;38044;45.148;39.604;2023-10-31T03:37:23;101676.13;;;7.19;80.02
52032;BME280;38044;45.148;39.604;2023-10-31T03:39:49;101681.00;;;7.22;80.46
52032;BME280;38044;45.148;39.604;2023-10-31T03:42:15;101681.91;;;7.28;80.48
52032;BME280;38044;45.148;39.604;2023-10-31T03:44:41;101679.13;;;7.22;80.58
52032;BME280;38044;45.148;39.604;2023-10-31T03:47:07;101681.75;;;7.34;81.40
52032;BME280;38044;45.148;39.604;2023-10-31T03:49:33;101694.06;;;7.35;81.67
52032;BME280;38044;45.148;39.604;2023-10-31T03:51:59;101691.47;;;7.40;80.95
52032;BME280;38044;45.148;39.604;2023-10-31T03:54:25;101697.69;;;7.29;80.75
52032;BME280;38044;45.148;39.604;2023-10-31T03:56:50;101688.31;;;7.43;80.68
52032;BME280;38044;45.148;39.604;2023-10-31T03:59:16;101709.16;;;7.41;80.67
52032;BME280;38044;45.148;39.604;2023-10-31T04:01:42;101700.56;;;7.39;80.70
52032;BME280;38044;45.148;39.604;2023-10-31T04:04:08;101721.47;;;7.42;80.47
52032;BME280;38044;45.148;39.604;2023-10-31T04:06:34;101710.94;;;7.36;80.72
52032;BME280;38044;45.148;39.604;2023-10-31T04:09:00;101712.88;;;7.40;80.88
52032;BME280;38044;45.148;39.604;2023-10-31T04:11:26;101718.91;;;7.48;80.14
52032;BME280;38044;45.148;39.604;2023-10-31T04:13:51;101713.16;;;7.56;79.95
52032;BME280;38044;45.148;39.604;2023-10-31T04:16:17;101705.84;;;7.68;79.22
52032;BME280;38044;45.148;39.604;2023-10-31T04:18:43;101704.63;;;7.93;78.26
52032;BME280;38044;45.148;39.604;2023-10-31T04:21:09;101731.34;;;8.43;76.89
52032;BME280;38044;45.148;39.604;2023-10-31T04:23:34;101727.47;;;8.78;75.46
52032;BME280;38044;45.148;39.604;2023-10-31T04:26:00;101706.38;;;9.09;74.16
52032;BME280;38044;45.148;39.604;2023-10-31T04:28:26;101726.50;;;9.65;72.89
52032;BME280;38044;45.148;39.604;2023-10-31T04:30:52;101733.31;;;10.21;71.47
52032;BME280;38044;45.148;39.604;2023-10-31T04:33:18;101730.88;;;10.56;69.83
52032;BME280;38044;45.148;39.604;2023-10-31T04:35:44;101719.19;;;10.98;68.45
52032;BME280;38044;45.148;39.604;2023-10-31T04:38:09;101735.69;;;11.38;66.90
52032;BME280;38044;45.148;39.604;2023-10-31T04:40:35;101743.53;;;11.65;66.35
52032;BME280;38044;45.148;39.604;2023-10-31T04:43:01;101738.69;;;12.08;64.99
52032;BME280;38044;45.148;39.604;2023-10-31T04:45:27;101737.72;;;12.63;63.37
52032;BME280;38044;45.148;39.604;2023-10-31T04:47:53;101739.81;;;13.32;62.07
52032;BME280;38044;45.148;39.604;2023-10-31T04:50:19;101741.13;;;14.03;59.82
52032;BME280;38044;45.148;39.604;2023-10-31T04:52:45;101717.53;;;14.61;57.48
52032;BME280;38044;45.148;39.604;2023-10-31T04:55:11;101737.59;;;15.36;55.99
52032;BME280;38044;45.148;39.604;2023-10-31T04:57:37;101724.97;;;15.83;54.46
52032;BME280;38044;45.148;39.604;2023-10-31T05:00:03;101744.13;;;16.47;53.09
52032;BME280;38044;45.148;39.604;2023-10-31T05:02:31;101738.09;;;16.78;51.84
52032;BME280;38044;45.148;39.604;2023-10-31T05:04:57;101753.50;;;17.19;50.52
52032;BME280;38044;45.148;39.604;2023-10-31T05:07:23;101734.53;;;17.27;50.04
52032;BME280;38044;45.148;39.604;2023-10-31T05:09:49;101736.41;;;17.41;48.84
52032;BME280;38044;45.148;39.604;2023-10-31T05:12:15;101735.28;;;17.42;48.91
52032;BME280;38044;45.148;39.604;2023-10-31T05:14:41;101730.66;;;17.42;49.27
52032;BME280;38044;45.148;39.604;2023-10-31T05:17:07;101745.78;;;18.02;48.44
52032;BME280;38044;45.148;39.604;2023-10-31T05:19:32;101748.72;;;18.54;47.49
52032;BME280;38044;45.148;39.604;2023-10-31T05:21:58;101738.41;;;18.91;46.61
52032;BME280;38044;45.148;39.604;2023-10-31T05:24:24;101748.84;;;19.41;46.32
52032;BME280;38044;45.148;39.604;2023-10-31T05:26:50;101722.53;;;19.45;45.30
52032;BME280;38044;45.148;39.604;2023-10-31T05:29:16;101745.09;;;19.98;45.03
52032;BME280;38044;45.148;39.604;2023-10-31T05:31:41;101732.13;;;20.63;44.28
52032;BME280;38044;45.148;39.604;2023-10-31T05:34:08;101723.44;;;20.90;42.99
52032;BME280;38044;45.148;39.604;2023-10-31T05:36:34;101744.13;;;21.54;42.55
52032;BME280;38044;45.148;39.604;2023-10-31T05:39:00;101750.28;;;21.30;42.50
52032;BME280;38044;45.148;39.604;2023-10-31T05:41:26;101751.13;;;21.64;42.15
52032;BME280;38044;45.148;39.604;2023-10-31T05:43:52;101748.38;;;22.10;41.57
52032;BME280;38044;45.148;39.604;2023-10-31T05:46:17;101741.28;;;22.09;40.61
52032;BME280;38044;45.148;39.604;2023-10-31T05:48:45;101732.56;;;22.52;40.57
52032;BME280;38044;45.148;39.604;2023-10-31T05:51:15;101750.88;;;23.41;40.46
52032;BME280;38044;45.148;39.604;2023-10-31T05:53:43;101751.91;;;23.65;38.70
52032;BME280;38044;45.148;39.604;2023-10-31T05:56:11;101735.41;;;24.09;37.86
52032;BME280;38044;45.148;39.604;2023-10-31T05:58:38;101738.06;;;24.53;38.38
52032;BME280;38044;45.148;39.604;2023-10-31T06:01:04;101747.47;;;24.87;37.62
52032;BME280;38044;45.148;39.604;2023-10-31T06:03:30;101740.53;;;24.93;36.72
52032;BME280;38044;45.148;39.604;2023-10-31T06:05:56;101747.97;;;24.92;37.62
52032;BME280;38044;45.148;39.604;2023-10-31T06:08:22;101736.50;;;24.71;36.96
52032;BME280;38044;45.148;39.604;2023-10-31T06:10:50;101751.50;;;24.58;37.46
52032;BME280;38044;45.148;39.604;2023-10-31T06:13:16;101746.31;;;24.05;37.85
52032;BME280;38044;45.148;39.604;2023-10-31T06:15:42;101745.31;;;23.97;38.85
52032;BME280;38044;45.148;39.604;2023-10-31T06:18:08;101746.56;;;24.16;38.38
52032;BME280;38044;45.148;39.604;2023-10-31T06:20:34;101736.81;;;24.34;38.25
52032;BME280;38044;45.148;39.604;2023-10-31T06:23:01;101733.91;;;24.43;38.38
52032;BME280;38044;45.148;39.604;2023-10-31T06:25:30;101734.50;;;24.36;38.23
52032;BME280;38044;45.148;39.604;2023-10-31T06:27:56;101744.78;;;23.76;39.44
52032;BME280;38044;45.148;39.604;2023-10-31T06:30:22;101741.78;;;22.23;42.01
52032;BME280;38044;45.148;39.604;2023-10-31T06:32:51;101725.78;;;21.34;43.15
52032;BME280;38044;45.148;39.604;2023-10-31T06:35:17;101725.66;;;21.51;43.38
52032;BME280;38044;45.148;39.604;2023-10-31T06:37:43;101725.03;;;22.24;41.85
52032;BME280;38044;45.148;39.604;2023-10-31T06:40:09;101737.53;;;22.87;41.42
52032;BME280;38044;45.148;39.604;2023-10-31T06:42:35;101729.72;;;23.13;40.85
52032;BME280;38044;45.148;39.604;2023-10-31T06:45:02;101746.88;;;23.67;40.20
52032;BME280;38044;45.148;39.604;2023-10-31T06:47:28;101729.19;;;23.52;39.90
52032;BME280;38044;45.148;39.604;2023-10-31T06:49:53;101722.59;;;23.69;39.94
52032;BME280;38044;45.148;39.604;2023-10-31T06:52:19;101716.44;;;24.35;38.75
52032;BME280;38044;45.148;39.604;2023-10-31T06:54:45;101736.19;;;24.25;39.18
52032;BME280;38044;45.148;39.604;2023-10-31T06:57:11;101727.69;;;24.30;38.37
52032;BME280;38044;45.148;39.604;2023-10-31T06:59:37;101732.00;;;24.63;37.92
52032;BME280;38044;45.148;39.604;2023-10-31T07:02:03;101734.38;;;25.00;37.59
52032;BME280;38044;45.148;39.604;2023-10-31T07:04:28;101721.91;;;25.06;36.62
52032;BME280;38044;45.148;39.604;2023-10-31T07:06:54;101711.69;;;25.06;37.15
52032;BME280;38044;45.148;39.604;2023-10-31T07:09:26;101726.22;;;25.65;37.14
52032;BME280;38044;45.148;39.604;2023-10-31T07:11:52;101725.59;;;25.95;36.34
52032;BME280;38044;45.148;39.604;2023-10-31T07:14:18;101721.94;;;25.68;36.19
52032;BME280;38044;45.148;39.604;2023-10-31T07:16:44;101728.31;;;26.18;35.96
52032;BME280;38044;45.148;39.604;2023-10-31T07:19:10;101717.50;;;25.82;35.32
52032;BME280;38044;45.148;39.604;2023-10-31T07:21:36;101718.00;;;25.88;35.49
52032;BME280;38044;45.148;39.604;2023-10-31T07:24:02;101720.91;;;26.22;36.58
52032;BME280;38044;45.148;39.604;2023-10-31T07:26:28;101722.66;;;25.84;35.35
52032;BME280;38044;45.148;39.604;2023-10-31T07:28:54;101724.09;;;25.78;35.71
52032;BME280;38044;45.148;39.604;2023-10-31T07:31:20;101717.25;;;25.91;36.44
52032;BME280;38044;45.148;39.604;2023-10-31T07:33:46;101719.78;;;26.00;35.61
52032;BME280;38044;45.148;39.604;2023-10-31T07:36:12;101728.56;;;26.09;35.78
52032;BME280;38044;45.148;39.604;2023-10-31T07:38:38;101714.53;;;26.18;35.33
52032;BME280;38044;45.148;39.604;2023-10-31T07:41:04;101714.41;;;26.34;35.19
52032;BME280;38044;45.148;39.604;2023-10-31T07:43:30;101707.16;;;25.99;34.89
52032;BME280;38044;45.148;39.604;2023-10-31T07:45:55;101701.66;;;25.99;35.42
52032;BME280;38044;45.148;39.604;2023-10-31T07:48:21;101701.97;;;26.20;35.21
52032;BME280;38044;45.148;39.604;2023-10-31T07:50:47;101706.44;;;26.55;35.69
52032;BME280;38044;45.148;39.604;2023-10-31T07:53:13;101687.41;;;25.93;34.96
52032;BME280;38044;45.148;39.604;2023-10-31T07:55:39;101700.09;;;26.51;35.18
52032;BME280;38044;45.148;39.604;2023-10-31T07:58:04;101697.13;;;26.63;34.22
52032;BME280;38044;45.148;39.604;2023-10-31T08:00:30;101678.13;;;26.88;34.62
52032;BME280;38044;45.148;39.604;2023-10-31T08:02:56;101674.41;;;27.07;34.54
52032;BME280;38044;45.148;39.604;2023-10-31T08:05:22;101686.00;;;27.20;33.67
52032;BME280;38044;45.148;39.604;2023-10-31T08:07:48;101665.84;;;27.53;33.16
52032;BME280;38044;45.148;39.604;2023-10-31T08:10:14;101675.75;;;27.21;33.80
52032;BME280;38044;45.148;39.604;2023-10-31T08:12:39;101670.13;;;27.92;32.43
52032;BME280;38044;45.148;39.604;2023-10-31T08:15:05;101677.81;;;27.72;32.74
52032;BME280;38044;45.148;39.604;2023-10-31T08:17:31;101675.09;;;27.75;33.29
52032;BME280;38044;45.148;39.604;2023-10-31T08:19:57;101675.22;;;27.90;33.21
52032;BME280;38044;45.148;39.604;2023-10-31T08:22:23;101668.09;;;27.81;32.87
52032;BME280;38044;45.148;39.604;2023-10-31T08:24:49;101650.22;;;27.72;33.08
52032;BME280;38044;45.148;39.604;2023-10-31T08:27:14;101661.53;;;28.04;33.40
52032;BME280;38044;45.148;39.604;2023-10-31T08:29:40;101648.53;;;28.04;33.16
52032;BME280;38044;45.148;39.604;2023-10-31T08:32:06;101648.03;;;27.95;32.89
52032;BME280;38044;45.148;39.604;2023-10-31T08:34:32;101641.72;;;27.91;32.78
52032;BME280;38044;45.148;39.604;2023-10-31T08:36:58;101629.34;;;27.78;32.66
52032;BME280;38044;45.148;39.604;2023-10-31T08:39:26;101640.63;;;27.58;33.00
52032;BME280;38044;45.148;39.604;2023-10-31T08:41:53;101625.31;;;27.65;32.32
52032;BME280;38044;45.148;39.604;2023-10-31T08:44:19;101646.53;;;27.57;32.54
52032;BME280;38044;45.148;39.604;2023-10-31T08:46:45;101616.78;;;27.84;32.35
52032;BME280;38044;45.148;39.604;2023-10-31T08:49:11;101639.41;;;28.00;32.20
52032;BME280;38044;45.148;39.604;2023-10-31T08:51:37;101625.06;;;27.84;31.65
52032;BME280;38044;45.148;39.604;2023-10-31T08:54:03;101625.78;;;27.74;33.09
52032;BME280;38044;45.148;39.604;2023-10-31T08:56:29;101618.53;;;27.58;32.72
52032;BME280;38044;45.148;39.604;2023-10-31T08:58:55;101614.78;;;27.81;33.13
52032;BME280;38044;45.148;39.604;2023-10-31T09:01:21;101610.97;;;27.96;33.19
52032;BME280;38044;45.148;39.604;2023-10-31T09:03:46;101613.81;;;28.11;32.65
52032;BME280;38044;45.148;39.604;2023-10-31T09:06:12;101608.75;;;28.27;32.55
52032;BME280;38044;45.148;39.604;2023-10-31T09:08:38;101581.78;;;28.02;31.45
52032;BME280;38044;45.148;39.604;2023-10-31T09:11:04;101598.69;;;28.67;32.49
52032;BME280;38044;45.148;39.604;2023-10-31T09:13:31;101595.16;;;28.81;31.08
52032;BME280;38044;45.148;39.604;2023-10-31T09:15:59;101581.75;;;28.83;30.79
52032;BME280;38044;45.148;39.604;2023-10-31T09:18:25;101568.66;;;28.62;31.20
52032;BME280;38044;45.148;39.604;2023-10-31T09:20:51;101581.31;;;28.77;30.41
52032;BME280;38044;45.148;39.604;2023-10-31T09:23:17;101576.16;;;28.68;31.63
52032;BME280;38044;45.148;39.604;2023-10-31T09:25:44;101559.53;;;28.58;31.30
52032;BME280;38044;45.148;39.604;2023-10-31T09:28:10;101553.63;;;28.59;30.78
52032;BME280;38044;45.148;39.604;2023-10-31T09:30:36;101551.59;;;28.49;31.18
52032;BME280;38044;45.148;39.604;2023-10-31T09:33:02;101560.34;;;28.62;31.62
52032;BME280;38044;45.148;39.604;2023-10-31T09:35:28;101549.69;;;28.71;31.30
52032;BME280;38044;45.148;39.604;2023-10-31T09:37:54;101564.41;;;29.04;31.01
52032;BME280;38044;45.148;39.604;2023-10-31T09:40:20;101562.81;;;29.03;29.96
52032;BME280;38044;45.148;39.604;2023-10-31T09:42:49;101552.16;;;29.15;30.91
52032;BME280;38044;45.148;39.604;2023-10-31T09:45:16;101557.69;;;29.40;29.75
52032;BME280;38044;45.148;39.604;2023-10-31T09:47:42;101552.19;;;29.33;29.37
52032;BME280;38044;45.148;39.604;2023-10-31T09:50:08;101551.38;;;29.22;30.35
52032;BME280;38044;45.148;39.604;2023-10-31T09:52:38;101545.03;;;29.39;30.42
52032;BME280;38044;45.148;39.604;2023-10-31T09:55:05;101549.78;;;29.28;30.43
52032;BME280;38044;45.148;39.604;2023-10-31T09:57:32;101544.19;;;28.85;29.98
52032;BME280;38044;45.148;39.604;2023-10-31T09:59:58;101532.31;;;28.81;31.25
52032;BME280;38044;45.148;39.604;2023-10-31T10:02:24;101533.56;;;29.27;31.24
52032;BME280;38044;45.148;39.604;2023-10-31T10:04:50;101537.91;;;29.38;30.54
52032;BME280;38044;45.148;39.604;2023-10-31T10:07:18;101531.16;;;29.61;30.93
52032;BME280;38044;45.148;39.604;2023-10-31T10:09:45;101534.72;;;29.79;29.86
52032;BME280;38044;45.148;39.604;2023-10-31T10:12:15;101533.56;;;29.62;29.76
52032;BME280;38044;45.148;39.604;2023-10-31T10:14:44;101518.53;;;29.31;29.94
52032;BME280;38044;45.148;39.604;2023-10-31T10:17:15;101530.81;;;29.37;29.98
52032;BME280;38044;45.148;39.604;2023-10-31T10:19:42;101526.84;;;29.21;29.24
52032;BME280;38044;45.148;39.604;2023-10-31T10:22:08;101526.78;;;28.74;29.68
52032;BME280;38044;45.148;39.604;2023-10-31T10:24:35;101525.84;;;28.34;30.07
52032;BME280;38044;45.148;39.604;2023-10-31T10:27:04;101522.63;;;28.21;30.53
52032;BME280;38044;45.148;39.604;2023-10-31T10:29:30;101496.41;;;27.79;30.91
52032;BME280;38044;45.148;39.604;2023-10-31T10:31:56;101514.03;;;27.64;30.64
52032;BME280;38044;45.148;39.604;2023-10-31T10:34:24;101520.66;;;27.52;31.15
52032;BME280;38044;45.148;39.604;2023-10-31T10:36:50;101513.34;;;27.23;31.27
52032;BME280;38044;45.148;39.604;2023-10-31T10:39:19;101509.34;;;27.16;31.29
52032;BME280;38044;45.148;39.604;2023-10-31T10:41:52;101510.97;;;27.21;31.05
52032;BME280;38044;45.148;39.604;2023-10-31T10:44:31;101488.66;;;26.96;31.38
52032;BME280;38044;45.148;39.604;2023-10-31T10:46:58;101495.63;;;26.83;32.19
52032;BME280;38044;45.148;39.604;2023-10-31T10:49:27;101497.44;;;26.64;31.43
52032;BME280;38044;45.148;39.604;2023-10-31T10:51:59;101494.69;;;26.68;32.01
52032;BME280;38044;45.148;39.604;2023-10-31T10:57:03;101476.50;;;26.60;31.66
52032;BME280;38044;45.148;39.604;2023-10-31T10:59:42;101490.88;;;26.80;32.25
52032;BME280;38044;45.148;39.604;2023-10-31T11:02:09;101488.72;;;26.62;32.48
52032;BME280;38044;45.148;39.604;2023-10-31T11:04:39;101479.56;;;26.51;31.80
52032;BME280;38044;45.148;39.604;2023-10-31T11:07:05;101470.44;;;26.47;31.82
52032;BME280;38044;45.148;39.604;2023-10-31T11:09:31;101459.03;;;26.48;31.43
52032;BME280;38044;45.148;39.604;2023-10-31T11:11:59;101455.03;;;26.42;31.81
52032;BME280;38044;45.148;39.604;2023-10-31T11:14:26;101450.31;;;26.46;30.97
52032;BME280;38044;45.148;39.604;2023-10-31T11:16:54;101469.34;;;26.55;31.64
52032;BME280;38044;45.148;39.604;2023-10-31T11:19:22;101461.50;;;26.57;32.90
52032;BME280;38044;45.148;39.604;2023-10-31T11:22:00;101470.34;;;26.73;32.29
52032;BME280;38044;45.148;39.604;2023-10-31T11:24:28;101457.19;;;26.60;31.14
52032;BME280;38044;45.148;39.604;2023-10-31T11:26:58;101465.50;;;26.63;32.13
52032;BME280;38044;45.148;39.604;2023-10-31T11:29:25;101458.28;;;26.51;31.99
52032;BME280;38044;45.148;39.604;2023-10-31T11:31:53;101449.25;;;26.55;32.70
52032;BME280;38044;45.148;39.604;2023-10-31T11:34:19;101451.22;;;26.54;31.29
52032;BME280;38044;45.148;39.604;2023-10-31T11:36:46;101452.72;;;26.48;31.93
52032;BME280;38044;45.148;39.604;2023-10-31T11:39:17;101457.16;;;26.56;31.00
52032;BME280;38044;45.148;39.604;2023-10-31T11:41:48;101446.53;;;26.58;31.51
52032;BME280;38044;45.148;39.604;2023-10-31T11:44:16;101442.19;;;26.57;31.05
52032;BME280;38044;45.148;39.604;2023-10-31T11:46:42;101434.59;;;26.47;31.67
52032;BME280;38044;45.148;39.604;2023-10-31T11:49:08;101446.50;;;26.55;31.52
52032;BME280;38044;45.148;39.604;2023-10-31T11:51:34;101433.94;;;26.57;31.46
52032;BME280;38044;45.148;39.604;2023-10-31T11:54:04;101436.34;;;26.62;31.35
52032;BME280;38044;45.148;39.604;2023-10-31T11:56:34;101434.69;;;26.54;30.95
52032;BME280;38044;45.148;39.604;2023-10-31T11:59:02;101435.44;;;26.51;31.13
52032;BME280;38044;45.148;39.604;2023-10-31T12:01:29;101429.41;;;26.42;31.05
52032;BME280;38044;45.148;39.604;2023-10-31T12:03:55;101420.38;;;26.41;31.68
52032;BME280;38044;45.148;39.604;2023-10-31T12:06:21;101431.75;;;26.40;31.73
52032;BME280;38044;45.148;39.604;2023-10-31T12:08:47;101426.59;;;26.35;32.31
52032;BME280;38044;45.148;39.604;2023-10-31T12:11:15;101427.66;;;26.26;32.46
52032;BME280;38044;45.148;39.604;2023-10-31T12:13:53;101432.03;;;26.27;32.20
52032;BME280;38044;45.148;39.604;2023-10-31T12:16:24;101432.78;;;26.24;31.77
52032;BME280;38044;45.148;39.604;2023-10-31T12:19:03;101418.25;;;26.27;32.13
52032;BME280;38044;45.148;39.604;2023-10-31T12:21:49;101413.59;;;26.35;31.51
52032;BME280;38044;45.148;39.604;2023-10-31T12:24:18;101415.41;;;26.20;31.88
52032;BME280;38044;45.148;39.604;2023-10-31T12:26:45;101412.16;;;26.11;31.49
52032;BME280;38044;45.148;39.604;2023-10-31T12:29:19;101399.47;;;26.03;31.96
52032;BME280;38044;45.148;39.604;2023-10-31T12:31:51;101418.44;;;26.08;31.82
52032;BME280;38044;45.148;39.604;2023-10-31T12:34:24;101415.50;;;25.94;31.92
52032;BME280;38044;45.148;39.604;2023-10-31T12:36:52;101408.00;;;25.91;32.26
52032;BME280;38044;45.148;39.604;2023-10-31T12:39:21;101418.28;;;25.97;32.31
52032;BME280;38044;45.148;39.604;2023-10-31T12:41:48;101422.38;;;25.80;32.59